Urb Flamboyan, Puerto Rico
Current Conditions -  °F | °C
As of 12:56 AM on Saturday 20 Dec 2014 (Local Time) from TJSJ Reporting Station
Few Clouds Few Clouds  
Wind Chill: 75°   Ceiling: Unl
Heat Index: 75°   Visibility: 10mi
Dew Point: 69°   Wind: 5mph
Humidity: 82%   Direction: 80°E
Pressure: 30"   Gusts: NA
Location:  18.4259°N, 66.4717°W
Report Text: TJSJ 200456Z 08004KT 10SM FEW030 24/21 A3000 RMK AO2 SLP156 T02390206
Loading
Personal Weather Stations






























Interactive Weather Map New forecast layout! Learn more

10-Day Weather Forecast

Advertisements
Track Severe Weather on mobile